sensor_id;sensor_type;location;lat;lon;timestamp;temperature;humidity
64499;SHT31;51087;55.718;21.122;2023-05-07T00:01:12;2.63;66.64
64499;SHT31;51087;55.718;21.122;2023-05-07T00:03:38;2.57;66.91
64499;SHT31;51087;55.718;21.122;2023-05-07T00:06:04;2.53;67.31
64499;SHT31;51087;55.718;21.122;2023-05-07T00:08:29;2.56;67.29
64499;SHT31;51087;55.718;21.122;2023-05-07T00:10:55;2.48;67.51
64499;SHT31;51087;55.718;21.122;2023-05-07T00:13:20;2.41;68.19
64499;SHT31;51087;55.718;21.122;2023-05-07T00:15:46;2.33;68.18
64499;SHT31;51087;55.718;21.122;2023-05-07T00:18:11;2.38;68.18
64499;SHT31;51087;55.718;21.122;2023-05-07T00:20:36;2.38;68.08
64499;SHT31;51087;55.718;21.122;2023-05-07T00:23:02;2.28;68.59
64499;SHT31;51087;55.718;21.122;2023-05-07T00:25:28;2.26;68.61
64499;SHT31;51087;55.718;21.122;2023-05-07T00:27:53;2.24;68.81
64499;SHT31;51087;55.718;21.122;2023-05-07T00:30:18;2.21;68.71
64499;SHT31;51087;55.718;21.122;2023-05-07T00:32:44;2.20;69.02
64499;SHT31;51087;55.718;21.122;2023-05-07T00:35:10;2.18;68.83
64499;SHT31;51087;55.718;21.122;2023-05-07T00:37:36;2.22;68.79
64499;SHT31;51087;55.718;21.122;2023-05-07T00:40:01;2.18;69.17
64499;SHT31;51087;55.718;21.122;2023-05-07T00:42:30;2.14;69.01
64499;SHT31;51087;55.718;21.122;2023-05-07T00:44:57;2.07;69.33
64499;SHT31;51087;55.718;21.122;2023-05-07T00:47:23;2.07;69.17
64499;SHT31;51087;55.718;21.122;2023-05-07T00:49:50;2.05;69.15
64499;SHT31;51087;55.718;21.122;2023-05-07T00:52:16;2.00;69.65
64499;SHT31;51087;55.718;21.122;2023-05-07T00:54:42;1.95;69.45
64499;SHT31;51087;55.718;21.122;2023-05-07T00:57:09;1.98;69.38
64499;SHT31;51087;55.718;21.122;2023-05-07T00:59:36;1.93;69.91
64499;SHT31;51087;55.718;21.122;2023-05-07T01:02:02;1.91;69.76
64499;SHT31;51087;55.718;21.122;2023-05-07T01:04:27;1.80;70.20
64499;SHT31;51087;55.718;21.122;2023-05-07T01:06:55;1.80;70.25
64499;SHT31;51087;55.718;21.122;2023-05-07T01:09:22;1.80;69.91
64499;SHT31;51087;55.718;21.122;2023-05-07T01:11:49;1.76;70.28
64499;SHT31;51087;55.718;21.122;2023-05-07T01:14:15;1.74;70.42
64499;SHT31;51087;55.718;21.122;2023-05-07T01:16:42;1.86;69.87
64499;SHT31;51087;55.718;21.122;2023-05-07T01:19:08;1.84;69.84
64499;SHT31;51087;55.718;21.122;2023-05-07T01:21:36;1.77;70.16
64499;SHT31;51087;55.718;21.122;2023-05-07T01:24:02;1.64;70.46
64499;SHT31;51087;55.718;21.122;2023-05-07T01:26:29;1.66;70.93
64499;SHT31;51087;55.718;21.122;2023-05-07T01:28:54;1.63;70.85
64499;SHT31;51087;55.718;21.122;2023-05-07T01:31:20;1.63;70.91
64499;SHT31;51087;55.718;21.122;2023-05-07T01:33:48;1.60;71.39
64499;SHT31;51087;55.718;21.122;2023-05-07T01:36:14;1.56;71.29
64499;SHT31;51087;55.718;21.122;2023-05-07T01:38:41;1.49;71.68
64499;SHT31;51087;55.718;21.122;2023-05-07T01:41:07;1.45;71.70
64499;SHT31;51087;55.718;21.122;2023-05-07T01:43:33;1.45;71.61
64499;SHT31;51087;55.718;21.122;2023-05-07T01:45:59;1.49;71.67
64499;SHT31;51087;55.718;21.122;2023-05-07T01:48:26;1.43;71.68
64499;SHT31;51087;55.718;21.122;2023-05-07T01:50:52;1.46;71.62
64499;SHT31;51087;55.718;21.122;2023-05-07T01:53:17;1.45;71.66
64499;SHT31;51087;55.718;21.122;2023-05-07T01:55:43;1.38;72.10
64499;SHT31;51087;55.718;21.122;2023-05-07T01:58:08;1.35;72.21
64499;SHT31;51087;55.718;21.122;2023-05-07T02:00:34;1.31;72.17
64499;SHT31;51087;55.718;21.122;2023-05-07T02:02:59;1.32;72.32
64499;SHT31;51087;55.718;21.122;2023-05-07T02:05:24;1.31;72.61
64499;SHT31;51087;55.718;21.122;2023-05-07T02:07:50;1.18;72.91
64499;SHT31;51087;55.718;21.122;2023-05-07T02:10:15;1.21;72.92
64499;SHT31;51087;55.718;21.122;2023-05-07T02:12:41;1.18;72.64
64499;SHT31;51087;55.718;21.122;2023-05-07T02:15:08;1.19;72.83
64499;SHT31;51087;55.718;21.122;2023-05-07T02:17:33;1.18;73.02
64499;SHT31;51087;55.718;21.122;2023-05-07T02:19:59;1.14;72.89
64499;SHT31;51087;55.718;21.122;2023-05-07T02:22:25;1.18;72.78
64499;SHT31;51087;55.718;21.122;2023-05-07T02:24:50;1.14;72.95
64499;SHT31;51087;55.718;21.122;2023-05-07T02:27:16;1.15;72.75
64499;SHT31;51087;55.718;21.122;2023-05-07T02:29:41;1.11;73.14
64499;SHT31;51087;55.718;21.122;2023-05-07T02:32:07;1.05;73.20
64499;SHT31;51087;55.718;21.122;2023-05-07T02:34:32;1.02;73.28
64499;SHT31;51087;55.718;21.122;2023-05-07T02:36:58;1.04;73.39
64499;SHT31;51087;55.718;21.122;2023-05-07T02:39:23;1.01;73.61
64499;SHT31;51087;55.718;21.122;2023-05-07T02:41:48;0.98;73.65
64499;SHT31;51087;55.718;21.122;2023-05-07T02:44:14;0.90;73.70
64499;SHT31;51087;55.718;21.122;2023-05-07T02:46:39;1.00;73.50
64499;SHT31;51087;55.718;21.122;2023-05-07T02:49:05;0.95;73.64
64499;SHT31;51087;55.718;21.122;2023-05-07T02:51:31;1.04;73.37
64499;SHT31;51087;55.718;21.122;2023-05-07T02:53:56;0.92;73.35
64499;SHT31;51087;55.718;21.122;2023-05-07T02:56:22;0.94;73.21
64499;SHT31;51087;55.718;21.122;2023-05-07T02:58:47;1.00;73.02
64499;SHT31;51087;55.718;21.122;2023-05-07T03:01:13;0.94;73.18
64499;SHT31;51087;55.718;21.122;2023-05-07T03:03:39;1.00;73.23
64499;SHT31;51087;55.718;21.122;2023-05-07T03:06:05;0.97;73.17
64499;SHT31;51087;55.718;21.122;2023-05-07T03:08:32;0.94;73.18
64499;SHT31;51087;55.718;21.122;2023-05-07T03:10:58;0.94;73.08
64499;SHT31;51087;55.718;21.122;2023-05-07T03:13:23;1.02;72.72
64499;SHT31;51087;55.718;21.122;2023-05-07T03:15:48;1.05;72.58
64499;SHT31;51087;55.718;21.122;2023-05-07T03:18:14;1.07;72.67
64499;SHT31;51087;55.718;21.122;2023-05-07T03:20:39;1.18;72.15
64499;SHT31;51087;55.718;21.122;2023-05-07T03:23:05;1.08;72.42
64499;SHT31;51087;55.718;21.122;2023-05-07T03:25:31;1.14;72.36
64499;SHT31;51087;55.718;21.122;2023-05-07T03:27:57;1.22;71.82
64499;SHT31;51087;55.718;21.122;2023-05-07T03:30:22;1.22;71.87
64499;SHT31;51087;55.718;21.122;2023-05-07T03:32:48;1.28;72.02
64499;SHT31;51087;55.718;21.122;2023-05-07T03:35:13;1.39;71.15
64499;SHT31;51087;55.718;21.122;2023-05-07T03:37:39;1.38;71.03
64499;SHT31;51087;55.718;21.122;2023-05-07T03:40:06;1.43;71.27
64499;SHT31;51087;55.718;21.122;2023-05-07T03:42:31;1.40;71.00
64499;SHT31;51087;55.718;21.122;2023-05-07T03:44:57;1.50;70.27
64499;SHT31;51087;55.718;21.122;2023-05-07T03:47:22;1.71;69.62
64499;SHT31;51087;55.718;21.122;2023-05-07T03:49:48;1.76;69.45
64499;SHT31;51087;55.718;21.122;2023-05-07T03:52:14;1.76;69.27
64499;SHT31;51087;55.718;21.122;2023-05-07T03:54:40;1.78;69.35
64499;SHT31;51087;55.718;21.122;2023-05-07T03:57:05;1.78;69.22
64499;SHT31;51087;55.718;21.122;2023-05-07T03:59:30;1.95;68.57
64499;SHT31;51087;55.718;21.122;2023-05-07T04:01:56;1.93;68.55
64499;SHT31;51087;55.718;21.122;2023-05-07T04:04:21;2.17;68.02
64499;SHT31;51087;55.718;21.122;2023-05-07T04:06:47;2.41;67.13
64499;SHT31;51087;55.718;21.122;2023-05-07T04:09:12;2.41;66.61
64499;SHT31;51087;55.718;21.122;2023-05-07T04:11:37;2.52;66.20
64499;SHT31;51087;55.718;21.122;2023-05-07T04:14:05;2.64;66.26
64499;SHT31;51087;55.718;21.122;2023-05-07T04:16:31;2.75;65.29
64499;SHT31;51087;55.718;21.122;2023-05-07T04:18:56;2.98;64.53
64499;SHT31;51087;55.718;21.122;2023-05-07T04:21:21;3.05;64.43
64499;SHT31;51087;55.718;21.122;2023-05-07T04:23:48;3.15;64.38
64499;SHT31;51087;55.718;21.122;2023-05-07T04:26:14;3.34;63.46
64499;SHT31;51087;55.718;21.122;2023-05-07T04:28:39;3.39;63.14
64499;SHT31;51087;55.718;21.122;2023-05-07T04:31:06;3.55;63.38
64499;SHT31;51087;55.718;21.122;2023-05-07T04:33:32;3.55;62.94
64499;SHT31;51087;55.718;21.122;2023-05-07T04:35:58;3.67;62.57
64499;SHT31;51087;55.718;21.122;2023-05-07T04:38:28;3.70;62.50
64499;SHT31;51087;55.718;21.122;2023-05-07T04:40:53;3.86;62.05
64499;SHT31;51087;55.718;21.122;2023-05-07T04:43:19;4.10;61.10
64499;SHT31;51087;55.718;21.122;2023-05-07T04:45:45;4.28;60.67
64499;SHT31;51087;55.718;21.122;2023-05-07T04:48:11;4.28;60.70
64499;SHT31;51087;55.718;21.122;2023-05-07T04:50:36;4.45;60.29
64499;SHT31;51087;55.718;21.122;2023-05-07T04:53:02;4.48;59.87
64499;SHT31;51087;55.718;21.122;2023-05-07T04:55:28;4.52;59.86
64499;SHT31;51087;55.718;21.122;2023-05-07T04:57:53;4.69;59.69
64499;SHT31;51087;55.718;21.122;2023-05-07T05:00:19;4.79;58.88
64499;SHT31;51087;55.718;21.122;2023-05-07T05:02:45;4.87;58.49
64499;SHT31;51087;55.718;21.122;2023-05-07T05:05:11;4.91;58.71
64499;SHT31;51087;55.718;21.122;2023-05-07T05:07:37;5.03;58.26
64499;SHT31;51087;55.718;21.122;2023-05-07T05:10:03;5.13;58.17
64499;SHT31;51087;55.718;21.122;2023-05-07T05:12:29;5.20;58.19
64499;SHT31;51087;55.718;21.122;2023-05-07T05:14:55;5.38;57.31
64499;SHT31;51087;55.718;21.122;2023-05-07T05:17:20;5.55;57.14
64499;SHT31;51087;55.718;21.122;2023-05-07T05:19:46;5.70;57.27
64499;SHT31;51087;55.718;21.122;2023-05-07T05:22:11;5.73;57.15
64499;SHT31;51087;55.718;21.122;2023-05-07T05:24:36;5.89;56.43
64499;SHT31;51087;55.718;21.122;2023-05-07T05:27:02;6.04;56.05
64499;SHT31;51087;55.718;21.122;2023-05-07T05:29:28;6.08;56.10
64499;SHT31;51087;55.718;21.122;2023-05-07T05:31:53;6.24;55.50
64499;SHT31;51087;55.718;21.122;2023-05-07T05:34:18;6.44;54.83
64499;SHT31;51087;55.718;21.122;2023-05-07T05:36:47;6.45;55.27
64499;SHT31;51087;55.718;21.122;2023-05-07T05:39:12;6.48;55.50
64499;SHT31;51087;55.718;21.122;2023-05-07T05:41:38;6.73;53.90
64499;SHT31;51087;55.718;21.122;2023-05-07T05:44:03;6.86;53.34
64499;SHT31;51087;55.718;21.122;2023-05-07T05:46:29;7.03;53.24
64499;SHT31;51087;55.718;21.122;2023-05-07T05:48:55;7.08;52.52
64499;SHT31;51087;55.718;21.122;2023-05-07T05:51:21;7.21;52.33
64499;SHT31;51087;55.718;21.122;2023-05-07T05:53:46;7.30;51.77
64499;SHT31;51087;55.718;21.122;2023-05-07T05:56:12;7.45;50.98
64499;SHT31;51087;55.718;21.122;2023-05-07T05:58:37;7.55;50.48
64499;SHT31;51087;55.718;21.122;2023-05-07T06:01:03;7.66;50.06
64499;SHT31;51087;55.718;21.122;2023-05-07T06:03:28;7.77;49.92
64499;SHT31;51087;55.718;21.122;2023-05-07T06:05:53;7.87;49.72
64499;SHT31;51087;55.718;21.122;2023-05-07T06:08:19;8.07;48.99
64499;SHT31;51087;55.718;21.122;2023-05-07T06:10:45;8.18;49.02
64499;SHT31;51087;55.718;21.122;2023-05-07T06:13:10;8.33;48.40
64499;SHT31;51087;55.718;21.122;2023-05-07T06:15:36;8.31;48.31
64499;SHT31;51087;55.718;21.122;2023-05-07T06:18:01;8.46;47.87
64499;SHT31;51087;55.718;21.122;2023-05-07T06:20:27;8.51;46.54
64499;SHT31;51087;55.718;21.122;2023-05-07T06:22:52;8.62;46.33
64499;SHT31;51087;55.718;21.122;2023-05-07T06:25:18;8.66;46.40
64499;SHT31;51087;55.718;21.122;2023-05-07T06:27:43;8.77;46.66
64499;SHT31;51087;55.718;21.122;2023-05-07T06:30:08;8.96;46.59
64499;SHT31;51087;55.718;21.122;2023-05-07T06:32:34;9.07;45.98
64499;SHT31;51087;55.718;21.122;2023-05-07T06:35:00;9.16;45.53
64499;SHT31;51087;55.718;21.122;2023-05-07T06:37:25;9.31;44.88
64499;SHT31;51087;55.718;21.122;2023-05-07T06:39:50;9.34;45.27
64499;SHT31;51087;55.718;21.122;2023-05-07T06:42:16;9.32;44.93
64499;SHT31;51087;55.718;21.122;2023-05-07T06:44:41;9.37;44.66
64499;SHT31;51087;55.718;21.122;2023-05-07T06:47:07;9.44;44.21
64499;SHT31;51087;55.718;21.122;2023-05-07T06:49:32;9.58;44.05
64499;SHT31;51087;55.718;21.122;2023-05-07T06:51:58;9.61;44.01
64499;SHT31;51087;55.718;21.122;2023-05-07T06:54:24;9.65;44.48
64499;SHT31;51087;55.718;21.122;2023-05-07T06:56:49;9.81;44.12
64499;SHT31;51087;55.718;21.122;2023-05-07T06:59:15;9.89;42.76
64499;SHT31;51087;55.718;21.122;2023-05-07T07:01:40;9.93;42.48
64499;SHT31;51087;55.718;21.122;2023-05-07T07:04:06;9.99;42.63
64499;SHT31;51087;55.718;21.122;2023-05-07T07:06:31;10.02;43.19
64499;SHT31;51087;55.718;21.122;2023-05-07T07:08:58;10.13;43.32
64499;SHT31;51087;55.718;21.122;2023-05-07T07:11:23;10.29;43.32
64499;SHT31;51087;55.718;21.122;2023-05-07T07:13:49;10.44;42.92
64499;SHT31;51087;55.718;21.122;2023-05-07T07:16:15;10.51;42.81
64499;SHT31;51087;55.718;21.122;2023-05-07T07:18:41;10.54;42.33
64499;SHT31;51087;55.718;21.122;2023-05-07T07:21:06;10.48;41.72
64499;SHT31;51087;55.718;21.122;2023-05-07T07:23:32;10.57;42.03
64499;SHT31;51087;55.718;21.122;2023-05-07T07:25:58;10.65;42.26
64499;SHT31;51087;55.718;21.122;2023-05-07T07:28:23;10.78;41.63
64499;SHT31;51087;55.718;21.122;2023-05-07T07:30:49;10.93;41.57
64499;SHT31;51087;55.718;21.122;2023-05-07T07:33:15;10.95;41.72
64499;SHT31;51087;55.718;21.122;2023-05-07T07:35:40;10.99;41.60
64499;SHT31;51087;55.718;21.122;2023-05-07T07:38:06;11.12;41.89
64499;SHT31;51087;55.718;21.122;2023-05-07T07:40:31;11.26;40.67
64499;SHT31;51087;55.718;21.122;2023-05-07T07:42:57;11.24;40.61
64499;SHT31;51087;55.718;21.122;2023-05-07T07:45:22;11.30;40.68
64499;SHT31;51087;55.718;21.122;2023-05-07T07:47:48;11.35;40.70
64499;SHT31;51087;55.718;21.122;2023-05-07T07:50:14;11.51;40.75
64499;SHT31;51087;55.718;21.122;2023-05-07T07:52:39;11.69;40.30
64499;SHT31;51087;55.718;21.122;2023-05-07T07:55:06;11.74;39.43
64499;SHT31;51087;55.718;21.122;2023-05-07T07:57:32;11.85;39.71
64499;SHT31;51087;55.718;21.122;2023-05-07T07:59:57;11.96;39.95
64499;SHT31;51087;55.718;21.122;2023-05-07T08:02:22;12.05;39.10
64499;SHT31;51087;55.718;21.122;2023-05-07T08:04:48;12.09;38.38
64499;SHT31;51087;55.718;21.122;2023-05-07T08:07:13;12.26;39.44
64499;SHT31;51087;55.718;21.122;2023-05-07T08:09:39;12.43;38.56
64499;SHT31;51087;55.718;21.122;2023-05-07T08:12:05;12.32;37.74
64499;SHT31;51087;55.718;21.122;2023-05-07T08:14:31;12.25;37.84
64499;SHT31;51087;55.718;21.122;2023-05-07T08:16:56;12.43;38.17
64499;SHT31;51087;55.718;21.122;2023-05-07T08:19:22;12.58;37.95
64499;SHT31;51087;55.718;21.122;2023-05-07T08:21:47;12.67;37.63
64499;SHT31;51087;55.718;21.122;2023-05-07T08:24:14;12.63;37.33
64499;SHT31;51087;55.718;21.122;2023-05-07T08:26:39;12.60;37.45
64499;SHT31;51087;55.718;21.122;2023-05-07T08:29:05;12.63;38.06
64499;SHT31;51087;55.718;21.122;2023-05-07T08:31:30;12.80;37.64
64499;SHT31;51087;55.718;21.122;2023-05-07T08:33:57;12.88;38.29
64499;SHT31;51087;55.718;21.122;2023-05-07T08:36:23;12.88;37.27
64499;SHT31;51087;55.718;21.122;2023-05-07T08:38:48;12.78;36.93
64499;SHT31;51087;55.718;21.122;2023-05-07T08:41:15;12.98;38.02
64499;SHT31;51087;55.718;21.122;2023-05-07T08:43:41;13.44;36.76
64499;SHT31;51087;55.718;21.122;2023-05-07T08:46:09;14.37;35.05
64499;SHT31;51087;55.718;21.122;2023-05-07T08:48:35;15.46;33.20
64499;SHT31;51087;55.718;21.122;2023-05-07T08:51:01;16.39;33.17
64499;SHT31;51087;55.718;21.122;2023-05-07T08:53:26;17.91;31.36
64499;SHT31;51087;55.718;21.122;2023-05-07T08:55:52;18.51;29.66
64499;SHT31;51087;55.718;21.122;2023-05-07T08:58:18;19.14;28.25
64499;SHT31;51087;55.718;21.122;2023-05-07T09:00:43;19.03;28.31
64499;SHT31;51087;55.718;21.122;2023-05-07T09:03:09;20.07;27.55
64499;SHT31;51087;55.718;21.122;2023-05-07T09:05:38;20.72;27.08
64499;SHT31;51087;55.718;21.122;2023-05-07T09:08:05;21.33;26.58
64499;SHT31;51087;55.718;21.122;2023-05-07T09:10:33;21.51;26.02
64499;SHT31;51087;55.718;21.122;2023-05-07T09:12:58;22.05;24.87
64499;SHT31;51087;55.718;21.122;2023-05-07T09:15:24;24.04;23.47
64499;SHT31;51087;55.718;21.122;2023-05-07T09:17:50;25.48;22.48
64499;SHT31;51087;55.718;21.122;2023-05-07T09:20:16;26.48;21.71
64499;SHT31;51087;55.718;21.122;2023-05-07T09:22:41;26.59;21.16
64499;SHT31;51087;55.718;21.122;2023-05-07T09:25:08;27.23;20.23
64499;SHT31;51087;55.718;21.122;2023-05-07T09:27:34;28.37;19.74
64499;SHT31;51087;55.718;21.122;2023-05-07T09:30:06;27.89;19.91
64499;SHT31;51087;55.718;21.122;2023-05-07T09:32:35;28.27;19.41
64499;SHT31;51087;55.718;21.122;2023-05-07T09:35:01;28.24;19.22
64499;SHT31;51087;55.718;21.122;2023-05-07T09:37:30;27.79;19.38
64499;SHT31;51087;55.718;21.122;2023-05-07T09:39:55;29.73;19.16
64499;SHT31;51087;55.718;21.122;2023-05-07T09:42:24;31.12;17.67
64499;SHT31;51087;55.718;21.122;2023-05-07T09:44:52;30.22;18.11
64499;SHT31;51087;55.718;21.122;2023-05-07T09:47:23;28.88;18.44
64499;SHT31;51087;55.718;21.122;2023-05-07T09:49:49;28.85;18.40
64499;SHT31;51087;55.718;21.122;2023-05-07T09:52:16;27.69;19.14
64499;SHT31;51087;55.718;21.122;2023-05-07T09:54:41;28.48;18.93
64499;SHT31;51087;55.718;21.122;2023-05-07T09:57:11;28.72;19.14
64499;SHT31;51087;55.718;21.122;2023-05-07T09:59:38;28.76;18.37
64499;SHT31;51087;55.718;21.122;2023-05-07T10:02:04;31.91;16.56
64499;SHT31;51087;55.718;21.122;2023-05-07T10:04:31;31.35;17.11
64499;SHT31;51087;55.718;21.122;2023-05-07T10:06:57;30.43;17.56
64499;SHT31;51087;55.718;21.122;2023-05-07T10:09:23;31.63;17.25
64499;SHT31;51087;55.718;21.122;2023-05-07T10:11:50;32.83;16.44
64499;SHT31;51087;55.718;21.122;2023-05-07T10:14:16;33.51;16.29
64499;SHT31;51087;55.718;21.122;2023-05-07T10:16:42;32.28;16.97
64499;SHT31;51087;55.718;21.122;2023-05-07T10:19:09;32.45;16.15
64499;SHT31;51087;55.718;21.122;2023-05-07T10:21:48;32.48;16.20
64499;SHT31;51087;55.718;21.122;2023-05-07T10:24:31;32.61;16.28
64499;SHT31;51087;55.718;21.122;2023-05-07T10:26:59;34.82;15.14
64499;SHT31;51087;55.718;21.122;2023-05-07T10:35:02;37.32;13.86
64499;SHT31;51087;55.718;21.122;2023-05-07T10:37:50;34.36;15.01
64499;SHT31;51087;55.718;21.122;2023-05-07T10:40:16;35.73;14.52
64499;SHT31;51087;55.718;21.122;2023-05-07T10:43:01;38.78;13.18
64499;SHT31;51087;55.718;21.122;2023-05-07T10:45:28;36.48;13.77
64499;SHT31;51087;55.718;21.122;2023-05-07T10:48:10;36.50;14.28
64499;SHT31;51087;55.718;21.122;2023-05-07T10:50:43;36.97;14.14
64499;SHT31;51087;55.718;21.122;2023-05-07T10:55:42;39.81;13.33
64499;SHT31;51087;55.718;21.122;2023-05-07T10:58:29;38.85;13.35
64499;SHT31;51087;55.718;21.122;2023-05-07T11:01:02;42.70;12.29
64499;SHT31;51087;55.718;21.122;2023-05-07T11:03:28;37.21;14.49
64499;SHT31;51087;55.718;21.122;2023-05-07T11:06:14;34.61;16.05
64499;SHT31;51087;55.718;21.122;2023-05-07T11:11:19;34.61;15.81
64499;SHT31;51087;55.718;21.122;2023-05-07T11:13:48;34.65;15.65
64499;SHT31;51087;55.718;21.122;2023-05-07T11:16:21;34.60;15.94
64499;SHT31;51087;55.718;21.122;2023-05-07T11:21:32;35.09;15.60
64499;SHT31;51087;55.718;21.122;2023-05-07T11:23:58;36.14;15.34
64499;SHT31;51087;55.718;21.122;2023-05-07T11:26:25;36.21;15.45
64499;SHT31;51087;55.718;21.122;2023-05-07T11:28:51;34.63;15.58
64499;SHT31;51087;55.718;21.122;2023-05-07T11:31:21;33.58;16.58
64499;SHT31;51087;55.718;21.122;2023-05-07T11:33:48;32.69;16.27
64499;SHT31;51087;55.718;21.122;2023-05-07T11:36:13;33.68;15.38
64499;SHT31;51087;55.718;21.122;2023-05-07T11:38:38;32.91;16.11
64499;SHT31;51087;55.718;21.122;2023-05-07T11:41:04;34.13;16.01
64499;SHT31;51087;55.718;21.122;2023-05-07T11:43:31;34.03;16.02
64499;SHT31;51087;55.718;21.122;2023-05-07T11:46:06;35.13;15.59
64499;SHT31;51087;55.718;21.122;2023-05-07T11:48:33;35.29;15.20
64499;SHT31;51087;55.718;21.122;2023-05-07T11:53:27;31.33;16.69
64499;SHT31;51087;55.718;21.122;2023-05-07T11:55:55;33.27;16.20
64499;SHT31;51087;55.718;21.122;2023-05-07T11:58:22;33.02;16.04
64499;SHT31;51087;55.718;21.122;2023-05-07T12:00:51;33.48;16.21
64499;SHT31;51087;55.718;21.122;2023-05-07T12:03:17;32.80;16.37
64499;SHT31;51087;55.718;21.122;2023-05-07T12:05:46;31.97;16.83
64499;SHT31;51087;55.718;21.122;2023-05-07T12:08:16;31.18;17.16
64499;SHT31;51087;55.718;21.122;2023-05-07T12:10:42;31.56;17.24
64499;SHT31;51087;55.718;21.122;2023-05-07T12:13:18;31.84;17.29
64499;SHT31;51087;55.718;21.122;2023-05-07T12:15:44;30.87;17.74
64499;SHT31;51087;55.718;21.122;2023-05-07T12:18:11;29.78;18.50
64499;SHT31;51087;55.718;21.122;2023-05-07T12:20:38;30.60;18.27
64499;SHT31;51087;55.718;21.122;2023-05-07T12:23:03;29.22;19.25
64499;SHT31;51087;55.718;21.122;2023-05-07T12:25:36;28.75;19.00
64499;SHT31;51087;55.718;21.122;2023-05-07T12:28:03;28.85;19.15
64499;SHT31;51087;55.718;21.122;2023-05-07T12:30:31;28.94;19.14
64499;SHT31;51087;55.718;21.122;2023-05-07T12:32:57;30.13;18.71
64499;SHT31;51087;55.718;21.122;2023-05-07T12:35:29;30.66;18.27
64499;SHT31;51087;55.718;21.122;2023-05-07T12:37:58;31.19;17.74
64499;SHT31;51087;55.718;21.122;2023-05-07T12:40:46;30.04;18.65
64499;SHT31;51087;55.718;21.122;2023-05-07T12:43:20;29.06;18.53
64499;SHT31;51087;55.718;21.122;2023-05-07T12:45:47;29.64;18.70
64499;SHT31;51087;55.718;21.122;2023-05-07T12:48:13;28.92;18.44
64499;SHT31;51087;55.718;21.122;2023-05-07T12:50:39;29.77;18.56
64499;SHT31;51087;55.718;21.122;2023-05-07T12:53:05;29.92;18.65
64499;SHT31;51087;55.718;21.122;2023-05-07T12:55:31;29.82;17.98
64499;SHT31;51087;55.718;21.122;2023-05-07T12:58:00;28.74;18.82
64499;SHT31;51087;55.718;21.122;2023-05-07T13:00:36;28.21;19.64
64499;SHT31;51087;55.718;21.122;2023-05-07T13:03:02;29.12;18.86
64499;SHT31;51087;55.718;21.122;2023-05-07T13:05:28;30.18;18.10
64499;SHT31;51087;55.718;21.122;2023-05-07T13:07:54;29.57;18.09
64499;SHT31;51087;55.718;21.122;2023-05-07T13:10:19;29.75;18.54
64499;SHT31;51087;55.718;21.122;2023-05-07T13:12:45;29.98;18.73
64499;SHT31;51087;55.718;21.122;2023-05-07T13:15:10;29.86;18.88
64499;SHT31;51087;55.718;21.122;2023-05-07T13:17:35;29.08;18.92
64499;SHT31;51087;55.718;21.122;2023-05-07T13:20:01;28.62;19.36
64499;SHT31;51087;55.718;21.122;2023-05-07T13:22:26;27.79;21.62
64499;SHT31;51087;55.718;21.122;2023-05-07T13:24:52;27.72;22.22
64499;SHT31;51087;55.718;21.122;2023-05-07T13:27:17;27.27;22.27
64499;SHT31;51087;55.718;21.122;2023-05-07T13:29:44;28.99;21.44
64499;SHT31;51087;55.718;21.122;2023-05-07T13:32:09;29.34;20.97
64499;SHT31;51087;55.718;21.122;2023-05-07T13:34:35;29.74;20.70
64499;SHT31;51087;55.718;21.122;2023-05-07T13:37:00;28.33;20.02
64499;SHT31;51087;55.718;21.122;2023-05-07T13:39:26;27.31;21.04
64499;SHT31;51087;55.718;21.122;2023-05-07T13:41:51;25.82;22.42
64499;SHT31;51087;55.718;21.122;2023-05-07T13:44:16;24.86;23.59
64499;SHT31;51087;55.718;21.122;2023-05-07T13:46:42;24.51;23.14
64499;SHT31;51087;55.718;21.122;2023-05-07T13:49:07;23.74;23.13
64499;SHT31;51087;55.718;21.122;2023-05-07T13:51:33;23.67;23.41
64499;SHT31;51087;55.718;21.122;2023-05-07T13:53:58;23.36;24.55
64499;SHT31;51087;55.718;21.122;2023-05-07T13:56:24;22.85;24.13
64499;SHT31;51087;55.718;21.122;2023-05-07T13:58:49;23.05;23.83
64499;SHT31;51087;55.718;21.122;2023-05-07T14:01:15;22.41;24.97
64499;SHT31;51087;55.718;21.122;2023-05-07T14:03:40;21.86;25.96
64499;SHT31;51087;55.718;21.122;2023-05-07T14:06:06;21.36;26.50
64499;SHT31;51087;55.718;21.122;2023-05-07T14:08:31;21.20;26.59
64499;SHT31;51087;55.718;21.122;2023-05-07T14:10:57;20.44;26.27
64499;SHT31;51087;55.718;21.122;2023-05-07T14:13:22;20.17;27.08
64499;SHT31;51087;55.718;21.122;2023-05-07T14:15:48;20.79;26.99
64499;SHT31;51087;55.718;21.122;2023-05-07T14:18:14;20.45;27.39
64499;SHT31;51087;55.718;21.122;2023-05-07T14:20:40;20.95;27.08
64499;SHT31;51087;55.718;21.122;2023-05-07T14:23:05;21.23;27.58
64499;SHT31;51087;55.718;21.122;2023-05-07T14:25:31;21.53;26.92
64499;SHT31;51087;55.718;21.122;2023-05-07T14:27:57;21.67;26.56
64499;SHT31;51087;55.718;21.122;2023-05-07T14:30:22;21.27;26.11
64499;SHT31;51087;55.718;21.122;2023-05-07T14:32:49;21.23;26.21
64499;SHT31;51087;55.718;21.122;2023-05-07T14:35:15;21.91;25.64
64499;SHT31;51087;55.718;21.122;2023-05-07T14:37:41;21.47;24.82
64499;SHT31;51087;55.718;21.122;2023-05-07T14:40:10;21.12;25.57
64499;SHT31;51087;55.718;21.122;2023-05-07T14:42:35;21.74;25.28
64499;SHT31;51087;55.718;21.122;2023-05-07T14:45:01;22.94;24.45
64499;SHT31;51087;55.718;21.122;2023-05-07T14:47:27;23.96;23.20
64499;SHT31;51087;55.718;21.122;2023-05-07T14:49:52;24.28;22.50
64499;SHT31;51087;55.718;21.122;2023-05-07T14:52:18;24.49;22.31
64499;SHT31;51087;55.718;21.122;2023-05-07T14:54:43;24.77;22.16
64499;SHT31;51087;55.718;21.122;2023-05-07T14:57:10;24.57;22.04
64499;SHT31;51087;55.718;21.122;2023-05-07T14:59:38;24.30;22.15
64499;SHT31;51087;55.718;21.122;2023-05-07T15:02:04;24.66;22.13
64499;SHT31;51087;55.718;21.122;2023-05-07T15:04:30;24.25;23.11
64499;SHT31;51087;55.718;21.122;2023-05-07T15:06:56;23.90;23.26
64499;SHT31;51087;55.718;21.122;2023-05-07T15:09:22;24.09;23.52
64499;SHT31;51087;55.718;21.122;2023-05-07T15:11:47;24.40;22.67
64499;SHT31;51087;55.718;21.122;2023-05-07T15:14:13;24.52;22.66
64499;SHT31;51087;55.718;21.122;2023-05-07T15:16:38;24.45;22.70
64499;SHT31;51087;55.718;21.122;2023-05-07T15:19:03;23.66;23.48
64499;SHT31;51087;55.718;21.122;2023-05-07T15:21:29;23.69;23.57
64499;SHT31;51087;55.718;21.122;2023-05-07T15:23:56;24.52;23.02
64499;SHT31;51087;55.718;21.122;2023-05-07T15:26:21;24.18;23.40
64499;SHT31;51087;55.718;21.122;2023-05-07T15:28:46;23.87;23.99
64499;SHT31;51087;55.718;21.122;2023-05-07T15:31:12;23.38;24.33
64499;SHT31;51087;55.718;21.122;2023-05-07T15:33:37;23.80;24.15